Time;durP1;ratioP1;P1;durP2;ratioP2;P2;SDS_P1;SDS_P2;PMS_P1;PMS_P2;Temp;Humidity;BMP_temperature;BMP_pressure;BME280_temperature;BME280_humidity;BME280_pressure;Samples;Min_cycle;Max_cycle;Signal;HPM_P1;HPM_P2
2021/12/05 00:22:31;;;;;;;0.20;0.20;;;;;;;3.42;85.96;99797.22;5036519;28;20037;-72
2021/12/05 00:24:59;;;;;;;0.27;0.27;;;;;;;3.36;85.89;99802.19;5037678;28;20029;-74
2021/12/05 00:27:31;;;;;;;0.20;0.20;;;;;;;3.28;86.26;99789.81;5037161;28;20044;-73
2021/12/05 00:30:08;;;;;;;0.20;0.20;;;;;;;3.23;86.71;99783.53;5037061;28;20067;-70
2021/12/05 00:41:38;;;;;;;0.20;0.20;;;;;;;3.17;87.11;99785.88;5034884;28;20303;-73
2021/12/05 00:55:13;;;;;;;0.40;0.40;;;;;;;3.08;87.06;99772.56;5036265;28;20029;-72
2021/12/05 00:59:05;;;;;;;0.20;0.20;;;;;;;3.09;86.80;99779.50;5016955;28;20038;-71
2021/12/05 01:08:19;;;;;;;0.10;0.10;;;;;;;3.02;87.21;99762.84;5017394;28;20432;-71
2021/12/05 01:16:20;;;;;;;0.10;0.10;;;;;;;2.95;87.13;99756.56;5035727;28;20283;-69
2021/12/05 01:18:46;;;;;;;0.13;0.13;;;;;;;2.96;87.87;99760.00;5036443;28;20290;-70
2021/12/05 01:21:14;;;;;;;0.10;0.10;;;;;;;2.94;87.92;99765.13;5036987;28;20025;-70
2021/12/05 01:35:08;;;;;;;0.10;0.10;;;;;;;2.96;88.34;99754.81;5016801;28;20399;-71
2021/12/05 01:37:32;;;;;;;0.00;0.00;;;;;;;2.97;88.23;99748.84;5030751;28;20284;-70
2021/12/05 01:45:36;;;;;;;0.00;0.00;;;;;;;3.00;88.20;99774.84;5017842;28;20095;-71
2021/12/05 01:56:42;;;;;;;0.10;0.10;;;;;;;2.94;87.92;99767.72;5036283;28;20311;-69
2021/12/05 01:59:15;;;;;;;0.10;0.10;;;;;;;2.93;87.75;99767.66;5039776;28;20272;-70
2021/12/05 02:31:57;;;;;;;0.10;0.10;;;;;;;2.87;87.49;99756.22;5019935;28;20124;-69
2021/12/05 02:43:09;;;;;;;0.00;0.00;;;;;;;2.82;87.49;99754.25;5027378;28;20284;-69
2021/12/05 02:45:10;;;;;;;0.10;0.10;;;;;;;2.82;87.59;99752.56;5032421;28;20351;-70
2021/12/05 02:47:37;;;;;;;0.10;0.10;;;;;;;2.84;87.29;99757.78;5039004;28;20283;-69
2021/12/05 02:50:06;;;;;;;0.20;0.20;;;;;;;2.80;87.18;99754.19;5036726;28;20330;-70
2021/12/05 02:52:36;;;;;;;0.10;0.10;;;;;;;2.79;87.44;99748.97;5038743;28;20303;-71
2021/12/05 02:55:14;;;;;;;0.10;0.10;;;;;;;2.80;87.33;99754.19;5022060;28;20279;-69
2021/12/05 03:00:15;;;;;;;0.10;0.10;;;;;;;2.73;87.60;99750.47;5020535;28;20292;-70
2021/12/05 03:02:43;;;;;;;0.10;0.10;;;;;;;2.74;87.15;99747.06;5019099;28;20299;-71
2021/12/05 03:05:13;;;;;;;0.10;0.10;;;;;;;2.70;87.25;99754.63;5018633;28;20286;-69
2021/12/05 03:07:41;;;;;;;0.10;0.10;;;;;;;2.68;87.47;99751.97;5038710;28;20288;-69
2021/12/05 03:10:10;;;;;;;0.10;0.10;;;;;;;2.71;87.65;99751.22;5037861;28;20375;-71
2021/12/05 03:12:38;;;;;;;0.00;0.00;;;;;;;2.70;87.49;99746.88;5038403;28;20287;-70
2021/12/05 03:15:08;;;;;;;0.00;0.00;;;;;;;2.69;87.66;99750.28;5039066;28;20346;-70
2021/12/05 03:17:34;;;;;;;0.07;0.07;;;;;;;2.68;87.89;99749.38;5038818;28;20280;-72
2021/12/05 03:19:59;;;;;;;0.10;0.10;;;;;;;2.71;87.93;99753.78;5038863;28;20334;-77
2021/12/05 03:22:25;;;;;;;0.00;0.00;;;;;;;2.69;87.73;99765.78;5038205;28;20120;-72
2021/12/05 03:24:50;;;;;;;0.10;0.10;;;;;;;2.74;87.38;99759.13;5038338;28;20044;-71
2021/12/05 03:27:16;;;;;;;0.20;0.20;;;;;;;2.73;87.25;99758.22;5038469;28;20029;-69
2021/12/05 03:29:41;;;;;;;0.10;0.10;;;;;;;2.68;86.80;99761.44;5037951;28;20056;-69
2021/12/05 03:32:07;;;;;;;0.13;0.13;;;;;;;2.61;86.91;99758.56;5038101;28;20408;-71
2021/12/05 03:34:33;;;;;;;0.10;0.10;;;;;;;2.57;86.56;99755.78;5038307;28;20017;-70
2021/12/05 03:36:59;;;;;;;0.20;0.20;;;;;;;2.53;86.90;99756.47;5037651;28;20032;-72
2021/12/05 03:39:25;;;;;;;0.10;0.10;;;;;;;2.51;86.33;99752.94;5035980;28;20799;-70
2021/12/05 03:41:53;;;;;;;0.10;0.10;;;;;;;2.47;86.89;99755.41;5037288;28;20029;-71
2021/12/05 03:44:19;;;;;;;0.10;0.10;;;;;;;2.43;87.15;99747.44;5038232;28;20033;-71
2021/12/05 03:46:46;;;;;;;0.10;0.10;;;;;;;2.43;86.95;99755.19;5037901;28;20323;-70
2021/12/05 03:49:12;;;;;;;0.10;0.10;;;;;;;2.40;87.55;99755.06;5037534;28;20329;-73
2021/12/05 03:51:40;;;;;;;0.20;0.20;;;;;;;2.40;87.62;99760.22;5037590;28;20311;-71
2021/12/05 03:54:06;;;;;;;0.20;0.20;;;;;;;2.39;87.62;99767.09;5037802;28;20291;-69
2021/12/05 03:56:33;;;;;;;0.20;0.20;;;;;;;2.38;87.87;99764.44;5036734;28;20264;-72
2021/12/05 03:58:59;;;;;;;0.10;0.10;;;;;;;2.38;87.82;99775.69;5038012;28;20025;-71
2021/12/05 04:01:25;;;;;;;0.10;0.10;;;;;;;2.38;87.84;99782.53;5037555;28;20291;-72
2021/12/05 04:03:52;;;;;;;0.10;0.10;;;;;;;2.35;87.94;99782.41;5037948;28;20030;-71
2021/12/05 04:06:19;;;;;;;0.17;0.17;;;;;;;2.31;88.20;99782.25;5036893;28;20378;-70
2021/12/05 04:08:46;;;;;;;0.10;0.10;;;;;;;2.35;88.58;99780.69;5024067;28;20285;-72
2021/12/05 04:11:15;;;;;;;0.10;0.10;;;;;;;2.37;88.07;99785.94;5017704;28;20288;-75
2021/12/05 04:13:42;;;;;;;0.20;0.20;;;;;;;2.42;87.90;99787.03;5018163;28;20280;-71
2021/12/05 04:16:07;;;;;;;0.20;0.20;;;;;;;2.42;87.78;99787.03;5018044;28;20308;-72
2021/12/05 04:18:34;;;;;;;0.10;0.10;;;;;;;2.49;87.75;99793.34;5017864;28;20309;-72
2021/12/05 04:21:00;;;;;;;0.20;0.20;;;;;;;2.45;87.82;99790.59;5016747;28;20042;-73
2021/12/05 04:23:26;;;;;;;0.10;0.10;;;;;;;2.44;87.38;99796.59;5033610;28;20295;-72
2021/12/05 04:25:52;;;;;;;0.10;0.10;;;;;;;2.45;87.91;99789.75;5036327;28;20268;-72
2021/12/05 04:28:20;;;;;;;0.10;0.10;;;;;;;2.43;88.02;99794.84;5037691;28;20052;-72
2021/12/05 04:30:46;;;;;;;0.10;0.10;;;;;;;2.48;87.95;99800.19;5037342;28;20407;-70
2021/12/05 04:33:11;;;;;;;0.00;0.00;;;;;;;2.45;88.04;99798.34;5037407;28;20303;-72
2021/12/05 04:35:37;;;;;;;0.00;0.00;;;;;;;2.45;87.75;99795.78;5037158;28;20040;-72
2021/12/05 04:38:03;;;;;;;0.10;0.10;;;;;;;2.44;87.89;99798.31;5037130;28;20096;-71
2021/12/05 04:40:28;;;;;;;0.20;0.20;;;;;;;2.43;88.04;99799.13;5018910;28;20025;-71
2021/12/05 04:42:54;;;;;;;0.10;0.10;;;;;;;2.45;87.92;99802.66;5016883;28;20022;-72
2021/12/05 04:45:23;;;;;;;0.10;0.10;;;;;;;2.44;87.66;99809.50;5019345;28;20080;-76
2021/12/05 04:47:49;;;;;;;0.00;0.00;;;;;;;2.41;87.75;99803.31;5035342;28;20128;-71
2021/12/05 04:50:16;;;;;;;0.10;0.10;;;;;;;2.40;87.61;99812.78;5036124;28;20296;-73
2021/12/05 04:52:42;;;;;;;0.10;0.10;;;;;;;2.36;87.56;99810.88;5037162;28;20026;-72
2021/12/05 04:55:09;;;;;;;0.17;0.17;;;;;;;2.32;87.64;99812.44;5032946;28;20315;-72
2021/12/05 04:57:34;;;;;;;0.10;0.10;;;;;;;2.34;87.87;99807.34;5017245;28;20112;-71
2021/12/05 05:00:00;;;;;;;0.30;0.30;;;;;;;2.35;88.11;99808.25;5015849;28;20379;-73
2021/12/05 05:02:26;;;;;;;0.10;0.10;;;;;;;2.36;88.11;99803.13;5017200;28;20029;-73
2021/12/05 05:04:52;;;;;;;0.07;0.07;;;;;;;2.38;88.09;99811.84;5017705;28;20022;-72
2021/12/05 05:07:24;;;;;;;0.10;0.10;;;;;;;2.35;87.89;99806.53;5017534;28;20025;-72
2021/12/05 05:09:52;;;;;;;0.10;0.10;;;;;;;2.33;88.06;99818.50;5016781;28;20284;-73
2021/12/05 05:12:18;;;;;;;0.10;0.10;;;;;;;2.35;87.81;99811.69;5017995;28;20423;-72
2021/12/05 05:14:44;;;;;;;0.20;0.20;;;;;;;2.31;87.82;99827.88;5016935;28;20643;-72
2021/12/05 05:17:09;;;;;;;0.20;0.20;;;;;;;2.28;88.34;99836.38;5017031;28;20036;-73
2021/12/05 05:19:40;;;;;;;0.20;0.20;;;;;;;2.25;88.12;99832.78;5016838;28;20053;-72
2021/12/05 05:22:24;;;;;;;0.03;0.03;;;;;;;2.23;88.29;99840.44;5017646;28;20022;-72
2021/12/05 05:46:22;;;;;;;0.10;0.10;;;;;;;2.33;88.74;99854.69;5030453;28;20403;-70
2021/12/05 05:48:51;;;;;;;0.10;0.10;;;;;;;2.33;88.86;99855.56;5040290;28;20271;-71
2021/12/05 05:51:18;;;;;;;0.03;0.03;;;;;;;2.33;88.83;99860.75;5040377;28;20377;-70
2021/12/05 05:53:47;;;;;;;0.20;0.20;;;;;;;2.35;88.86;99863.38;5040428;28;20330;-70
2021/12/05 05:56:18;;;;;;;0.10;0.10;;;;;;;2.40;88.49;99863.56;5039626;28;20316;-71
2021/12/05 05:58:49;;;;;;;0.20;0.20;;;;;;;2.37;88.90;99864.31;5039323;28;20280;-70
2021/12/05 06:01:44;;;;;;;0.10;0.10;;;;;;;2.35;88.97;99862.50;5039504;28;20271;-71
2021/12/05 06:04:07;;;;;;;0.10;0.10;;;;;;;2.31;88.99;99867.50;5040196;28;20296;-71
2021/12/05 06:06:33;;;;;;;0.10;0.10;;;;;;;2.30;89.01;99876.09;5039661;28;20546;-71
2021/12/05 06:09:00;;;;;;;0.13;0.13;;;;;;;2.32;89.05;99873.56;5039854;28;20040;-72
2021/12/05 06:11:25;;;;;;;0.10;0.10;;;;;;;2.31;88.64;99879.56;5039509;28;20029;-71
2021/12/05 06:13:51;;;;;;;0.20;0.20;;;;;;;2.31;88.78;99883.00;5038362;28;20272;-70
2021/12/05 06:16:17;;;;;;;0.23;0.23;;;;;;;2.29;89.03;99883.75;5040027;28;20077;-71
2021/12/05 06:18:43;;;;;;;0.10;0.10;;;;;;;2.29;88.99;99888.91;5038897;28;20283;-70
2021/12/05 06:21:09;;;;;;;0.10;0.10;;;;;;;2.27;88.94;99887.97;5038639;28;20410;-71
2021/12/05 06:23:36;;;;;;;0.00;0.00;;;;;;;2.26;88.75;99891.38;5039613;28;20032;-71
2021/12/05 06:26:02;;;;;;;0.10;0.10;;;;;;;2.24;89.03;99896.47;5038433;28;20052;-70
2021/12/05 06:28:38;;;;;;;0.10;0.10;;;;;;;2.25;88.96;99913.72;5038868;28;20315;-70
2021/12/05 06:48:44;;;;;;;0.17;0.17;;;;;;;2.25;89.24;99923.19;5038578;28;20296;-71
2021/12/05 06:51:11;;;;;;;0.10;0.10;;;;;;;2.23;89.12;99925.69;5038871;28;20292;-71
2021/12/05 06:53:37;;;;;;;0.10;0.10;;;;;;;2.22;89.08;99926.50;5039306;28;20264;-70
2021/12/05 06:56:03;;;;;;;0.13;0.13;;;;;;;2.18;89.08;99928.06;5038750;28;20283;-71
2021/12/05 06:58:31;;;;;;;0.10;0.10;;;;;;;2.15;89.08;99933.09;5038891;28;20272;-71
2021/12/05 07:00:56;;;;;;;0.10;0.10;;;;;;;2.13;89.23;99933.81;5037967;28;20312;-71
2021/12/05 07:03:22;;;;;;;0.17;0.17;;;;;;;2.09;89.38;99942.22;5036682;28;20390;-71
2021/12/05 07:08:20;;;;;;;0.10;0.10;;;;;;;1.98;89.01;99946.91;5019313;28;20038;-71
2021/12/05 07:10:54;;;;;;;0.07;0.07;;;;;;;1.94;89.21;99948.44;5018716;28;20295;-69
2021/12/05 07:18:39;;;;;;;0.10;0.10;;;;;;;1.89;89.54;99966.28;5018533;28;20277;-71
2021/12/05 07:21:31;;;;;;;0.10;0.10;;;;;;;1.89;89.43;99960.22;5020138;28;20364;-71
2021/12/05 07:40:22;;;;;;;0.10;0.10;;;;;;;1.91;89.67;99982.75;5019074;28;20288;-71
2021/12/05 07:40:28;;;;;;;0.07;0.07;;;;;;;1.94;89.55;100001.78;5037427;28;20337;-71
2021/12/05 07:43:06;;;;;;;0.00;0.00;;;;;;;1.96;89.82;100000.16;5038090;28;20304;-71
2021/12/05 07:45:42;;;;;;;0.10;0.10;;;;;;;1.98;89.84;100003.72;5038103;28;20351;-70
2021/12/05 07:48:13;;;;;;;0.10;0.10;;;;;;;1.99;89.91;100013.22;5038441;28;20274;-71
2021/12/05 07:50:48;;;;;;;0.10;0.10;;;;;;;1.99;89.77;100014.09;5023026;28;20060;-70
2021/12/05 07:53:22;;;;;;;0.00;0.00;;;;;;;2.00;89.76;100015.88;5017623;28;20651;-71
2021/12/05 07:55:51;;;;;;;0.10;0.10;;;;;;;2.00;90.07;100012.41;5017795;28;20508;-70
2021/12/05 08:01:21;;;;;;;0.00;0.00;;;;;;;1.98;89.99;100011.47;5018451;28;20281;-72
2021/12/05 08:14:48;;;;;;;0.00;0.00;;;;;;;1.85;89.53;100036.66;5037473;28;20322;-71
2021/12/05 08:17:17;;;;;;;0.10;0.10;;;;;;;1.84;89.91;100037.47;5037583;28;20300;-71
2021/12/05 08:19:44;;;;;;;0.20;0.20;;;;;;;1.85;89.43;100044.41;5030974;28;20298;-70
2021/12/05 08:22:09;;;;;;;0.00;0.00;;;;;;;1.86;90.02;100042.72;5037147;28;20367;-70
2021/12/05 08:24:38;;;;;;;0.00;0.00;;;;;;;1.87;89.80;100039.31;5028644;28;20292;-70
2021/12/05 08:27:05;;;;;;;0.20;0.20;;;;;;;1.88;90.11;100047.13;5018731;28;20032;-70
2021/12/05 08:29:40;;;;;;;0.10;0.10;;;;;;;1.93;90.13;100049.94;5028212;28;20292;-69
2021/12/05 08:32:57;;;;;;;0.00;0.00;;;;;;;1.97;89.95;100054.47;5035632;28;20398;-70
2021/12/05 08:43:26;;;;;;;0.10;0.10;;;;;;;2.26;89.94;100056.72;5035162;28;20302;-69
2021/12/05 09:08:29;;;;;;;0.10;0.10;;;;;;;2.25;89.80;100061.00;5035901;28;20314;-70
2021/12/05 09:24:37;;;;;;;0.10;0.10;;;;;;;2.77;89.55;100130.69;5035444;28;20334;-71
2021/12/05 10:03:06;;;;;;;0.00;0.00;;;;;;;2.95;88.69;100177.25;5034398;28;20283;-71
2021/12/05 10:13:54;;;;;;;0.00;0.00;;;;;;;3.47;89.15;100191.78;5036294;28;20400;-71
2021/12/05 10:37:17;;;;;;;0.10;0.10;;;;;;;4.13;85.88;100211.16;5032684;28;20038;-72
2021/12/05 10:39:43;;;;;;;0.10;0.10;;;;;;;4.09;85.64;100217.00;5035465;28;20146;-71
2021/12/05 10:42:35;;;;;;;0.10;0.10;;;;;;;4.08;85.70;100215.22;5038824;28;20052;-72
2021/12/05 10:45:01;;;;;;;0.10;0.10;;;;;;;4.00;85.22;100212.31;5038895;28;20088;-71
2021/12/05 10:47:41;;;;;;;0.10;0.10;;;;;;;3.97;85.48;100225.09;5038770;28;20053;-72
2021/12/05 10:50:33;;;;;;;0.10;0.10;;;;;;;3.93;86.04;100224.06;5019191;28;20038;-73
2021/12/05 10:53:29;;;;;;;0.10;0.10;;;;;;;3.90;86.04;100216.19;5025391;28;20026;-71
2021/12/05 10:56:23;;;;;;;0.10;0.10;;;;;;;3.90;86.17;100220.44;5034221;28;20065;-71
2021/12/05 10:59:10;;;;;;;0.20;0.20;;;;;;;3.92;86.42;100227.47;5036823;28;20037;-71
2021/12/05 11:01:43;;;;;;;0.10;0.10;;;;;;;3.92;86.16;100226.63;5036854;28;20041;-75
2021/12/05 11:04:13;;;;;;;0.10;0.10;;;;;;;3.89;86.12;100234.22;5035587;28;20033;-72
2021/12/05 11:06:52;;;;;;;0.10;0.10;;;;;;;3.87;86.20;100228.09;5038384;28;20021;-73
2021/12/05 11:09:20;;;;;;;0.20;0.20;;;;;;;3.84;85.99;100229.75;5028117;28;20029;-72
2021/12/05 11:11:49;;;;;;;0.10;0.10;;;;;;;3.88;86.30;100235.94;5038346;28;20029;-73
2021/12/05 11:14:17;;;;;;;0.10;0.10;;;;;;;3.94;86.17;100241.38;5038467;28;20048;-72
2021/12/05 11:16:44;;;;;;;0.10;0.10;;;;;;;4.02;85.81;100241.75;5038713;28;20032;-73
2021/12/05 11:19:14;;;;;;;0.10;0.10;;;;;;;4.07;85.99;100237.69;5038921;28;20025;-73
2021/12/05 11:21:47;;;;;;;0.10;0.10;;;;;;;4.15;85.94;100250.06;5037749;28;20029;-72
2021/12/05 11:24:17;;;;;;;0.10;0.10;;;;;;;4.22;85.91;100250.41;5032133;28;20061;-72
2021/12/05 11:26:46;;;;;;;0.20;0.20;;;;;;;4.31;86.04;100249.97;5017682;28;20076;-71
2021/12/05 11:29:11;;;;;;;0.10;0.10;;;;;;;4.39;85.87;100245.09;5029452;28;20385;-72
2021/12/05 11:31:38;;;;;;;0.10;0.10;;;;;;;4.43;85.34;100247.03;5018480;28;20100;-72
2021/12/05 11:34:04;;;;;;;0.10;0.10;;;;;;;4.43;85.30;100244.44;5014913;28;20034;-74
2021/12/05 11:36:36;;;;;;;0.10;0.10;;;;;;;4.47;84.97;100253.19;5038366;28;20045;-74
2021/12/05 11:39:22;;;;;;;0.00;0.00;;;;;;;4.65;85.35;100256.59;5034289;28;20034;-73
2021/12/05 11:41:48;;;;;;;0.00;0.00;;;;;;;5.08;84.90;100254.03;5029076;28;20033;-73
2021/12/05 11:44:19;;;;;;;0.10;0.10;;;;;;;5.71;83.40;100257.38;5026038;28;20347;-73
2021/12/05 11:46:45;;;;;;;0.10;0.10;;;;;;;5.92;81.09;100254.72;5037291;28;20108;-73
2021/12/05 11:49:15;;;;;;;0.17;0.17;;;;;;;5.82;80.39;100256.09;5024012;28;20381;-74
2021/12/05 11:51:55;;;;;;;0.30;0.30;;;;;;;5.64;79.87;100264.94;5018544;28;20032;-73
2021/12/05 11:54:30;;;;;;;0.20;0.20;;;;;;;5.46;80.94;100261.59;5027387;28;20040;-73
2021/12/05 11:56:59;;;;;;;0.20;0.20;;;;;;;5.32;81.38;100267.16;5017635;28;20076;-74
2021/12/05 11:59:28;;;;;;;0.20;0.20;;;;;;;5.19;81.97;100277.84;5022275;28;20343;-74
2021/12/05 12:02:11;;;;;;;0.10;0.10;;;;;;;5.11;82.59;100274.91;5018169;28;20116;-74
2021/12/05 12:05:07;;;;;;;0.20;0.20;;;;;;;5.08;82.59;100283.50;5035694;28;20033;-76
2021/12/05 12:07:38;;;;;;;0.10;0.10;;;;;;;5.06;82.35;100287.69;5020530;28;20132;-74
2021/12/05 12:10:26;;;;;;;0.20;0.20;;;;;;;5.03;81.93;100289.28;5036839;28;20052;-74
2021/12/05 12:12:53;;;;;;;0.10;0.10;;;;;;;4.94;81.84;100289.81;5032547;28;20056;-73
2021/12/05 12:15:19;;;;;;;0.10;0.10;;;;;;;4.87;82.17;100290.34;5018285;28;20032;-75
2021/12/05 12:17:47;;;;;;;0.10;0.10;;;;;;;4.93;82.78;100291.50;5018320;28;20285;-74
2021/12/05 12:20:17;;;;;;;0.10;0.10;;;;;;;4.89;82.84;100301.69;5017938;28;20393;-75
2021/12/05 12:22:43;;;;;;;0.10;0.10;;;;;;;4.91;82.95;100305.22;5021215;28;20384;-74
2021/12/05 12:25:12;;;;;;;0.20;0.20;;;;;;;4.88;82.53;100302.50;5025094;28;20099;-74
2021/12/05 12:27:42;;;;;;;0.10;0.10;;;;;;;4.85;83.28;100304.97;5029318;28;20072;-76
2021/12/05 12:30:09;;;;;;;0.10;0.10;;;;;;;4.89;83.11;100309.47;5011770;28;20336;-76
2021/12/05 12:32:40;;;;;;;0.17;0.17;;;;;;;4.90;82.65;100317.31;5028679;28;20037;-75
2021/12/05 12:35:13;;;;;;;0.10;0.10;;;;;;;4.94;82.41;100319.22;5033605;28;20029;-75
2021/12/05 12:38:07;;;;;;;0.20;0.20;;;;;;;4.98;81.88;100320.22;5036014;28;20446;-74
2021/12/05 12:40:41;;;;;;;0.20;0.20;;;;;;;4.88;81.44;100323.25;5024805;28;20036;-77
2021/12/05 12:43:09;;;;;;;0.10;0.10;;;;;;;4.85;81.40;100328.34;5029014;28;20036;-77
2021/12/05 12:45:44;;;;;;;0.20;0.20;;;;;;;4.81;82.36;100328.19;5022468;28;20033;-77
2021/12/05 12:48:13;;;;;;;0.20;0.20;;;;;;;4.79;82.81;100339.31;5031363;28;20021;-74
2021/12/05 12:50:41;;;;;;;0.13;0.13;;;;;;;4.77;83.76;100335.75;5023431;28;20030;-76
2021/12/05 12:53:19;;;;;;;0.17;0.17;;;;;;;4.81;83.46;100330.78;5036198;28;20363;-77
2021/12/05 12:55:50;;;;;;;0.10;0.10;;;;;;;4.82;83.48;100336.88;5035219;28;20029;-74
2021/12/05 12:58:33;;;;;;;0.20;0.20;;;;;;;4.81;83.13;100330.78;5020245;28;20034;-77
2021/12/05 13:01:00;;;;;;;0.20;0.20;;;;;;;4.85;82.39;100341.31;5036578;28;20021;-77
2021/12/05 13:03:40;;;;;;;0.10;0.10;;;;;;;4.83;82.40;100349.00;5037122;28;20021;-77
2021/12/05 13:11:48;;;;;;;0.10;0.10;;;;;;;4.84;83.47;100352.50;5017464;28;20088;-77
2021/12/05 13:14:14;;;;;;;0.10;0.10;;;;;;;4.78;83.79;100361.78;5017686;28;20036;-77
2021/12/05 13:16:42;;;;;;;0.30;0.30;;;;;;;4.80;83.80;100367.03;5033596;28;20112;-77
2021/12/05 13:19:22;;;;;;;0.10;0.10;;;;;;;4.74;83.26;100375.41;5022849;28;20052;-76
2021/12/05 13:21:50;;;;;;;0.10;0.10;;;;;;;4.68;84.14;100376.03;5022245;28;20040;-77
2021/12/05 13:24:37;;;;;;;0.17;0.17;;;;;;;4.67;83.97;100373.41;5020011;28;20022;-75
2021/12/05 13:27:05;;;;;;;0.10;0.10;;;;;;;4.62;84.34;100380.06;5029440;28;20036;-75
2021/12/05 13:29:37;;;;;;;0.20;0.20;;;;;;;4.57;84.26;100382.47;5025186;28;20034;-77
2021/12/05 13:32:05;;;;;;;0.20;0.20;;;;;;;4.55;84.33;100381.50;5018930;28;20025;-75
2021/12/05 13:34:37;;;;;;;0.10;0.10;;;;;;;4.51;84.30;100385.66;5036829;28;20017;-75
2021/12/05 13:37:05;;;;;;;0.10;0.10;;;;;;;4.50;84.65;100386.47;5036726;28;20033;-75
2021/12/05 13:39:36;;;;;;;0.10;0.10;;;;;;;4.49;85.06;100389.00;5031774;28;20112;-77
2021/12/05 13:42:34;;;;;;;0.20;0.20;;;;;;;4.48;84.70;100395.88;5019771;28;20069;-74
2021/12/05 13:45:00;;;;;;;0.10;0.10;;;;;;;4.47;84.89;100394.13;5033952;28;20038;-74
2021/12/05 13:47:41;;;;;;;0.10;0.10;;;;;;;4.49;84.49;100397.66;5020308;28;20025;-75
2021/12/05 13:50:18;;;;;;;0.10;0.10;;;;;;;4.47;84.96;100395.81;5033007;28;20040;-75
2021/12/05 13:52:45;;;;;;;0.10;0.10;;;;;;;4.50;85.13;100402.03;5031158;28;20034;-75
2021/12/05 13:55:33;;;;;;;0.17;0.17;;;;;;;4.51;85.43;100402.91;5035916;28;20017;-75
2021/12/05 13:58:38;;;;;;;0.20;0.20;;;;;;;4.51;85.72;100410.69;5040066;28;20156;-76
2021/12/05 14:01:26;;;;;;;0.00;0.00;;;;;;;4.54;84.87;100424.69;5040182;28;20018;-74
2021/12/05 14:04:18;;;;;;;0.10;0.10;;;;;;;4.58;84.86;100428.31;5037959;28;20099;-74
2021/12/05 14:07:04;;;;;;;0.10;0.10;;;;;;;4.55;84.62;100428.19;5037200;28;20104;-74
2021/12/05 14:09:36;;;;;;;0.10;0.10;;;;;;;4.53;84.95;100435.00;5033899;28;20076;-74
2021/12/05 14:12:24;;;;;;;0.10;0.10;;;;;;;4.54;85.08;100448.03;5038007;28;20408;-75
2021/12/05 14:14:54;;;;;;;0.10;0.10;;;;;;;4.55;84.28;100448.94;5039129;28;20124;-73
2021/12/05 14:17:21;;;;;;;0.13;0.13;;;;;;;4.47;84.56;100456.34;5038227;28;20060;-73
2021/12/05 14:19:54;;;;;;;0.20;0.20;;;;;;;4.42;84.93;100460.41;5038217;28;20021;-74
2021/12/05 14:22:22;;;;;;;0.20;0.20;;;;;;;4.38;85.17;100459.38;5037800;28;20457;-74
2021/12/05 14:24:54;;;;;;;0.10;0.10;;;;;;;4.34;85.03;100473.03;5035278;28;20026;-74
2021/12/05 14:27:23;;;;;;;0.10;0.10;;;;;;;4.32;84.90;100482.44;5038528;28;20025;-74
2021/12/05 14:29:49;;;;;;;0.10;0.10;;;;;;;4.29;84.94;100487.47;5035166;28;20025;-75
2021/12/05 14:32:22;;;;;;;0.10;0.10;;;;;;;4.26;85.01;100490.78;5038280;28;20024;-74
2021/12/05 14:34:50;;;;;;;0.10;0.10;;;;;;;4.23;85.47;100497.56;5034965;28;20055;-75
2021/12/05 14:37:19;;;;;;;0.10;0.10;;;;;;;4.22;85.68;100507.03;5036931;28;20029;-74
2021/12/05 14:39:47;;;;;;;0.10;0.10;;;;;;;4.25;85.45;100507.16;5029174;28;20095;-75
2021/12/05 14:42:18;;;;;;;0.10;0.10;;;;;;;4.20;84.87;100502.56;5037135;28;20021;-74
2021/12/05 14:44:47;;;;;;;0.20;0.20;;;;;;;4.17;85.57;100505.03;5036518;28;20028;-73
2021/12/05 14:47:15;;;;;;;0.30;0.30;;;;;;;4.15;85.65;100515.31;5037620;28;20021;-74
2021/12/05 14:49:48;;;;;;;0.17;0.17;;;;;;;4.12;85.66;100522.94;5036324;28;20254;-73
2021/12/05 14:52:21;;;;;;;0.20;0.20;;;;;;;4.08;85.54;100529.69;5033195;28;20399;-73
2021/12/05 14:54:48;;;;;;;0.10;0.10;;;;;;;4.07;85.84;100546.03;5037145;28;20376;-74
2021/12/05 14:57:25;;;;;;;0.13;0.13;;;;;;;4.06;86.14;100545.97;5040929;28;20100;-74
2021/12/05 14:59:59;;;;;;;0.10;0.10;;;;;;;4.04;86.37;100553.66;5027144;28;20308;-74
2021/12/05 15:02:24;;;;;;;0.10;0.10;;;;;;;4.05;86.31;100564.91;5033735;28;20376;-74
2021/12/05 15:04:52;;;;;;;0.10;0.10;;;;;;;4.02;86.67;100572.50;5036255;28;20049;-74
2021/12/05 15:07:22;;;;;;;0.00;0.00;;;;;;;4.01;86.41;100581.09;5034570;28;20021;-75
2021/12/05 15:09:50;;;;;;;0.10;0.10;;;;;;;4.00;86.49;100585.41;5034847;28;20407;-75
2021/12/05 15:12:20;;;;;;;0.20;0.20;;;;;;;3.97;86.29;100593.91;5037800;28;20026;-75
2021/12/05 15:14:48;;;;;;;0.13;0.13;;;;;;;3.96;86.56;100594.72;5036304;28;20036;-74
2021/12/05 15:17:17;;;;;;;0.10;0.10;;;;;;;3.93;86.46;100602.31;5022510;28;20025;-73
2021/12/05 15:19:46;;;;;;;0.20;0.20;;;;;;;3.91;86.91;100603.09;5017745;28;20297;-74
2021/12/05 15:22:14;;;;;;;0.10;0.10;;;;;;;3.92;86.79;100613.50;5021217;28;20380;-74
2021/12/05 15:24:48;;;;;;;0.10;0.10;;;;;;;3.88;86.75;100615.84;5030432;28;20032;-73
2021/12/05 15:27:15;;;;;;;0.00;0.00;;;;;;;3.86;86.99;100623.53;5025572;28;20044;-74
2021/12/05 15:29:46;;;;;;;0.20;0.20;;;;;;;3.85;87.08;100630.44;5036618;28;20034;-73
2021/12/05 15:32:23;;;;;;;0.10;0.10;;;;;;;3.85;86.77;100632.13;5029575;28;20036;-73
2021/12/05 15:34:50;;;;;;;0.10;0.10;;;;;;;3.82;87.25;100639.75;5036711;28;20033;-72
2021/12/05 15:37:16;;;;;;;0.00;0.00;;;;;;;3.79;86.90;100639.59;5034118;28;20083;-73
2021/12/05 15:39:45;;;;;;;0.23;0.23;;;;;;;3.77;87.20;100647.28;5001939;28;20332;-73
2021/12/05 15:42:34;;;;;;;0.10;0.10;;;;;;;3.73;87.30;100645.31;5036994;28;20033;-72
2021/12/05 15:45:05;;;;;;;0.10;0.10;;;;;;;3.70;87.90;100656.44;5034732;28;20049;-72
2021/12/05 15:47:33;;;;;;;0.10;0.10;;;;;;;3.69;87.48;100659.81;5018020;28;20037;-72
2021/12/05 15:50:14;;;;;;;0.10;0.10;;;;;;;3.69;87.71;100666.72;5026686;28;20077;-72
2021/12/05 15:52:47;;;;;;;0.10;0.10;;;;;;;3.65;87.77;100665.66;5031518;28;20106;-72
2021/12/05 15:55:20;;;;;;;0.10;0.10;;;;;;;3.64;87.40;100669.06;5017006;28;20028;-72
2021/12/05 15:57:49;;;;;;;0.00;0.00;;;;;;;3.64;87.71;100681.09;5026123;28;20344;-73
2021/12/05 16:00:30;;;;;;;0.10;0.10;;;;;;;3.62;87.95;100677.53;5005585;28;20092;-73
2021/12/05 16:03:04;;;;;;;0.10;0.10;;;;;;;3.62;87.73;100687.91;5036814;28;20053;-72
2021/12/05 16:05:32;;;;;;;0.00;0.00;;;;;;;3.59;87.74;100679.97;5035558;28;20238;-72
2021/12/05 16:08:14;;;;;;;0.10;0.10;;;;;;;3.57;87.70;100688.53;5034994;28;20025;-72
2021/12/05 16:10:48;;;;;;;0.10;0.10;;;;;;;3.56;88.04;100697.09;5032584;28;20164;-73
2021/12/05 16:13:22;;;;;;;1.17;0.57;;;;;;;3.54;87.91;100703.91;5034891;28;20415;-72
2021/12/05 16:15:50;;;;;;;0.10;0.10;;;;;;;3.52;87.85;100713.28;5040255;28;20524;-72
2021/12/05 16:18:16;;;;;;;0.10;0.10;;;;;;;3.55;88.01;100718.63;5050179;28;20028;-73
2021/12/05 16:20:44;;;;;;;0.00;0.00;;;;;;;3.54;88.04;100724.63;5050121;28;20029;-72
2021/12/05 16:23:22;;;;;;;0.10;0.10;;;;;;;3.55;88.19;100728.13;5055998;28;20173;-73
2021/12/05 16:25:54;;;;;;;0.10;0.10;;;;;;;3.55;87.98;100730.72;5054532;28;20029;-72
2021/12/05 16:28:23;;;;;;;0.10;0.10;;;;;;;3.52;87.93;100739.19;5050944;28;20376;-73
2021/12/05 16:30:57;;;;;;;0.10;0.10;;;;;;;3.52;88.01;100735.69;5055831;28;20053;-72
2021/12/05 16:33:23;;;;;;;0.10;0.10;;;;;;;3.54;88.04;100734.06;5046358;28;20090;-72
2021/12/05 16:35:49;;;;;;;0.20;0.20;;;;;;;3.53;87.76;100735.78;5039554;28;20116;-72
2021/12/05 16:38:21;;;;;;;0.00;0.00;;;;;;;3.54;87.62;100745.34;5041978;28;20028;-72
2021/12/05 16:40:54;;;;;;;0.10;0.10;;;;;;;3.50;87.14;100751.16;5040972;28;20269;-72
2021/12/05 16:43:20;;;;;;;0.10;0.10;;;;;;;3.50;87.19;100753.75;5049580;28;20072;-72
2021/12/05 16:45:46;;;;;;;0.10;0.10;;;;;;;3.47;86.79;100771.69;5032254;28;20144;-71
2021/12/05 16:48:16;;;;;;;0.10;0.10;;;;;;;3.46;86.80;100772.50;5038642;28;20052;-72
2021/12/05 16:50:42;;;;;;;0.10;0.10;;;;;;;3.45;87.17;100775.91;5024972;28;20067;-72
2021/12/05 16:53:10;;;;;;;0.10;0.10;;;;;;;3.45;86.77;100788.84;5027814;28;20282;-73
2021/12/05 16:55:41;;;;;;;0.17;0.17;;;;;;;3.45;87.09;100788.84;5024726;28;20125;-71
2021/12/05 16:58:14;;;;;;;0.10;0.10;;;;;;;3.44;87.59;100802.59;5034630;28;20033;-70
2021/12/05 17:00:42;;;;;;;0.20;0.20;;;;;;;3.42;87.56;100797.31;5035311;28;20021;-71
2021/12/05 17:03:08;;;;;;;0.10;0.10;;;;;;;3.42;87.38;100815.44;5034413;28;20395;-74
2021/12/05 17:05:46;;;;;;;0.20;0.20;;;;;;;3.42;87.22;100811.94;5034539;28;20039;-74